sensor_id;sensor_type;location;lat;lon;timestamp;pressure;altitude;pressure_sealevel;temperature;humidity
62510;BME280;48558;48.242;11.654;2024-03-23T00:56:07;95647.88;;;8.24;100.00
62510;BME280;48558;48.242;11.654;2024-03-23T01:00:18;95633.50;;;8.20;100.00
62510;BME280;48558;48.242;11.654;2024-03-23T01:04:29;95616.03;;;7.81;100.00
62510;BME280;48558;48.242;11.654;2024-03-23T01:08:40;95624.13;;;7.75;100.00
62510;BME280;48558;48.242;11.654;2024-03-23T01:12:51;95623.69;;;7.68;100.00
62510;BME280;48558;48.242;11.654;2024-03-23T01:17:02;95620.94;;;7.68;100.00
62510;BME280;48558;48.242;11.654;2024-03-23T01:21:13;95616.63;;;7.67;100.00
62510;BME280;48558;48.242;11.654;2024-03-23T01:25:23;95595.50;;;8.00;100.00
62510;BME280;48558;48.242;11.654;2024-03-23T01:29:34;95600.47;;;8.71;95.74
62510;BME280;48558;48.242;11.654;2024-03-23T01:33:45;95591.31;;;8.88;92.95
62510;BME280;48558;48.242;11.654;2024-03-23T01:37:56;95596.09;;;9.26;88.46
62510;BME280;48558;48.242;11.654;2024-03-23T01:42:07;95586.69;;;9.56;85.38
62510;BME280;48558;48.242;11.654;2024-03-23T01:46:18;95590.50;;;9.73;83.04
62510;BME280;48558;48.242;11.654;2024-03-23T01:50:30;95583.84;;;9.94;81.83
62510;BME280;48558;48.242;11.654;2024-03-23T01:54:44;95576.34;;;10.24;79.13
62510;BME280;48558;48.242;11.654;2024-03-23T01:58:55;95584.31;;;10.37;78.59
62510;BME280;48558;48.242;11.654;2024-03-23T02:03:25;95571.41;;;10.63;76.45
62510;BME280;48558;48.242;11.654;2024-03-23T02:07:40;95562.81;;;10.61;75.86
62510;BME280;48558;48.242;11.654;2024-03-23T02:11:54;95557.25;;;10.41;77.55
62510;BME280;48558;48.242;11.654;2024-03-23T02:16:06;95559.06;;;10.44;76.61
62510;BME280;48558;48.242;11.654;2024-03-23T02:20:17;95552.81;;;10.63;75.48
62510;BME280;48558;48.242;11.654;2024-03-23T02:24:29;95552.38;;;10.50;75.83
62510;BME280;48558;48.242;11.654;2024-03-23T02:28:40;95547.13;;;10.67;75.10
62510;BME280;48558;48.242;11.654;2024-03-23T02:32:52;95538.84;;;10.87;74.04
62510;BME280;48558;48.242;11.654;2024-03-23T02:37:10;95527.91;;;10.78;74.35
62510;BME280;48558;48.242;11.654;2024-03-23T02:41:22;95528.50;;;10.67;75.35
62510;BME280;48558;48.242;11.654;2024-03-23T02:45:34;95510.72;;;10.68;75.60
62510;BME280;48558;48.242;11.654;2024-03-23T02:49:45;95509.25;;;10.93;74.36
62510;BME280;48558;48.242;11.654;2024-03-23T02:53:56;95505.47;;;10.91;74.49
62510;BME280;48558;48.242;11.654;2024-03-23T02:58:07;95505.59;;;11.02;73.81
62510;BME280;48558;48.242;11.654;2024-03-23T03:02:18;95501.66;;;10.88;74.85
62510;BME280;48558;48.242;11.654;2024-03-23T03:06:30;95498.81;;;11.03;73.87
62510;BME280;48558;48.242;11.654;2024-03-23T03:10:41;95494.69;;;10.72;75.49
62510;BME280;48558;48.242;11.654;2024-03-23T03:14:52;95482.31;;;10.68;75.62
62510;BME280;48558;48.242;11.654;2024-03-23T03:19:03;95487.41;;;10.55;76.96
62510;BME280;48558;48.242;11.654;2024-03-23T03:23:14;95477.44;;;10.43;77.98
62510;BME280;48558;48.242;11.654;2024-03-23T03:27:25;95488.19;;;10.55;77.57
62510;BME280;48558;48.242;11.654;2024-03-23T03:31:35;95486.94;;;10.56;78.06
62510;BME280;48558;48.242;11.654;2024-03-23T03:35:47;95477.44;;;10.43;78.64
62510;BME280;48558;48.242;11.654;2024-03-23T03:39:58;95473.34;;;10.03;81.34
62510;BME280;48558;48.242;11.654;2024-03-23T03:44:09;95467.50;;;9.81;83.17
62510;BME280;48558;48.242;11.654;2024-03-23T03:48:20;95464.75;;;10.31;80.79
62510;BME280;48558;48.242;11.654;2024-03-23T03:52:30;95450.09;;;10.25;81.17
62510;BME280;48558;48.242;11.654;2024-03-23T03:56:41;95442.50;;;10.05;82.58
62510;BME280;48558;48.242;11.654;2024-03-23T04:00:52;95445.22;;;9.99;84.02
62510;BME280;48558;48.242;11.654;2024-03-23T04:05:04;95454.81;;;10.04;84.21
62510;BME280;48558;48.242;11.654;2024-03-23T04:09:15;95431.88;;;10.13;83.72
62510;BME280;48558;48.242;11.654;2024-03-23T04:13:26;95421.97;;;10.06;84.41
62510;BME280;48558;48.242;11.654;2024-03-23T04:17:37;95420.44;;;10.05;85.40
62510;BME280;48558;48.242;11.654;2024-03-23T04:21:48;95402.00;;;9.96;85.69
62510;BME280;48558;48.242;11.654;2024-03-23T04:26:03;95409.03;;;9.97;85.74
62510;BME280;48558;48.242;11.654;2024-03-23T04:30:15;95397.63;;;10.25;83.35
62510;BME280;48558;48.242;11.654;2024-03-23T04:34:26;95385.13;;;10.29;83.26
62510;BME280;48558;48.242;11.654;2024-03-23T04:38:37;95375.22;;;10.17;83.49
62510;BME280;48558;48.242;11.654;2024-03-23T04:42:48;95383.09;;;10.09;84.34
62510;BME280;48558;48.242;11.654;2024-03-23T04:47:00;95380.38;;;10.30;83.49
62510;BME280;48558;48.242;11.654;2024-03-23T04:51:20;95358.00;;;10.48;82.68
62510;BME280;48558;48.242;11.654;2024-03-23T04:55:32;95368.91;;;10.57;81.04
62510;BME280;48558;48.242;11.654;2024-03-23T04:59:43;95356.72;;;10.89;79.27
62510;BME280;48558;48.242;11.654;2024-03-23T05:03:54;95346.53;;;11.01;78.12
62510;BME280;48558;48.242;11.654;2024-03-23T05:08:05;95341.84;;;11.12;77.06
62510;BME280;48558;48.242;11.654;2024-03-23T05:12:17;95336.75;;;11.05;77.04
62510;BME280;48558;48.242;11.654;2024-03-23T05:16:28;95339.63;;;11.16;75.66
62510;BME280;48558;48.242;11.654;2024-03-23T05:20:38;95333.28;;;11.10;75.52
62510;BME280;48558;48.242;11.654;2024-03-23T05:24:50;95340.75;;;11.30;74.50
62510;BME280;48558;48.242;11.654;2024-03-23T05:29:01;95326.41;;;11.31;73.63
62510;BME280;48558;48.242;11.654;2024-03-23T05:33:12;95327.50;;;11.39;73.05
62510;BME280;48558;48.242;11.654;2024-03-23T05:37:23;95322.50;;;11.43;73.15
62510;BME280;48558;48.242;11.654;2024-03-23T05:41:34;95325.00;;;11.78;71.41
62510;BME280;48558;48.242;11.654;2024-03-23T05:45:53;95320.03;;;11.88;70.61
62510;BME280;48558;48.242;11.654;2024-03-23T05:54:05;95321.69;;;12.11;68.78
62510;BME280;48558;48.242;11.654;2024-03-23T05:58:17;95310.19;;;11.81;70.00
62510;BME280;48558;48.242;11.654;2024-03-23T06:02:29;95301.13;;;11.81;70.02
62510;BME280;48558;48.242;11.654;2024-03-23T06:06:39;95293.47;;;12.07;68.50
62510;BME280;48558;48.242;11.654;2024-03-23T06:10:51;95277.41;;;12.16;67.48
62510;BME280;48558;48.242;11.654;2024-03-23T06:15:02;95279.91;;;12.20;68.30
62510;BME280;48558;48.242;11.654;2024-03-23T06:19:13;95268.13;;;12.25;68.35
62510;BME280;48558;48.242;11.654;2024-03-23T06:23:24;95266.03;;;12.14;69.91
62510;BME280;48558;48.242;11.654;2024-03-23T06:27:35;95257.28;;;12.27;69.14
62510;BME280;48558;48.242;11.654;2024-03-23T06:31:53;95242.25;;;12.50;67.33
62510;BME280;48558;48.242;11.654;2024-03-23T06:36:05;95240.22;;;12.45;69.27
62510;BME280;48558;48.242;11.654;2024-03-23T06:40:16;95233.69;;;12.59;69.03
62510;BME280;48558;48.242;11.654;2024-03-23T06:44:27;95219.59;;;12.79;67.83
62510;BME280;48558;48.242;11.654;2024-03-23T06:48:38;95202.19;;;13.01;67.09
62510;BME280;48558;48.242;11.654;2024-03-23T06:52:49;95206.00;;;13.04;67.42
62510;BME280;48558;48.242;11.654;2024-03-23T06:57:00;95214.53;;;13.44;65.97
62510;BME280;48558;48.242;11.654;2024-03-23T07:01:11;95195.06;;;13.61;64.62
62510;BME280;48558;48.242;11.654;2024-03-23T07:05:23;95192.59;;;14.09;63.41
62510;BME280;48558;48.242;11.654;2024-03-23T07:09:34;95173.56;;;14.71;60.68
62510;BME280;48558;48.242;11.654;2024-03-23T07:13:44;95189.59;;;15.48;59.10
62510;BME280;48558;48.242;11.654;2024-03-23T07:17:56;95197.06;;;15.59;58.37
62510;BME280;48558;48.242;11.654;2024-03-23T07:22:07;95197.06;;;15.29;60.90
62510;BME280;48558;48.242;11.654;2024-03-23T07:26:17;95190.81;;;15.23;61.19
62510;BME280;48558;48.242;11.654;2024-03-23T07:30:29;95201.56;;;15.38;60.79
62510;BME280;48558;48.242;11.654;2024-03-23T07:34:40;95215.47;;;15.38;62.08
62510;BME280;48558;48.242;11.654;2024-03-23T07:38:51;95242.50;;;14.83;65.38
62510;BME280;48558;48.242;11.654;2024-03-23T07:43:02;95264.34;;;14.05;73.88
62510;BME280;48558;48.242;11.654;2024-03-23T07:47:13;95289.22;;;13.15;87.14
62510;BME280;48558;48.242;11.654;2024-03-23T07:51:24;95298.00;;;12.80;87.60
62510;BME280;48558;48.242;11.654;2024-03-23T07:55:35;95289.13;;;12.59;88.89
62510;BME280;48558;48.242;11.654;2024-03-23T07:59:46;95317.28;;;12.41;92.23
62510;BME280;48558;48.242;11.654;2024-03-23T08:03:57;95301.78;;;12.07;98.24
62510;BME280;48558;48.242;11.654;2024-03-23T08:08:08;95333.41;;;11.95;100.00
62510;BME280;48558;48.242;11.654;2024-03-23T08:12:18;95345.97;;;11.90;100.00
62510;BME280;48558;48.242;11.654;2024-03-23T08:16:30;95362.38;;;11.94;100.00
62510;BME280;48558;48.242;11.654;2024-03-23T08:20:41;95422.56;;;11.42;100.00
62510;BME280;48558;48.242;11.654;2024-03-23T08:24:52;95444.13;;;10.12;100.00
62510;BME280;48558;48.242;11.654;2024-03-23T08:29:03;95473.19;;;9.92;100.00
62510;BME280;48558;48.242;11.654;2024-03-23T08:33:15;95481.41;;;9.72;100.00
62510;BME280;48558;48.242;11.654;2024-03-23T08:37:26;95482.06;;;9.67;100.00
62510;BME280;48558;48.242;11.654;2024-03-23T08:41:38;95493.75;;;9.77;100.00
62510;BME280;48558;48.242;11.654;2024-03-23T08:45:49;95493.66;;;9.57;100.00
62510;BME280;48558;48.242;11.654;2024-03-23T08:50:00;95505.72;;;9.59;100.00
62510;BME280;48558;48.242;11.654;2024-03-23T08:54:11;95504.22;;;9.73;100.00
62510;BME280;48558;48.242;11.654;2024-03-23T08:58:24;95514.69;;;9.83;100.00
62510;BME280;48558;48.242;11.654;2024-03-23T09:02:35;95517.44;;;9.83;100.00
62510;BME280;48558;48.242;11.654;2024-03-23T09:06:46;95531.63;;;9.76;100.00
62510;BME280;48558;48.242;11.654;2024-03-23T09:10:57;95549.41;;;9.75;100.00
62510;BME280;48558;48.242;11.654;2024-03-23T09:15:08;95550.47;;;9.63;100.00
62510;BME280;48558;48.242;11.654;2024-03-23T09:19:19;95544.94;;;9.63;100.00
62510;BME280;48558;48.242;11.654;2024-03-23T09:23:30;95560.69;;;9.48;100.00
62510;BME280;48558;48.242;11.654;2024-03-23T09:27:41;95546.56;;;9.70;100.00
62510;BME280;48558;48.242;11.654;2024-03-23T09:31:52;95522.56;;;9.47;100.00
62510;BME280;48558;48.242;11.654;2024-03-23T09:36:04;95542.72;;;9.38;100.00
62510;BME280;48558;48.242;11.654;2024-03-23T09:40:16;95546.78;;;9.28;100.00
62510;BME280;48558;48.242;11.654;2024-03-23T09:44:27;95545.47;;;9.38;100.00
62510;BME280;48558;48.242;11.654;2024-03-23T09:48:39;95559.34;;;9.44;100.00
62510;BME280;48558;48.242;11.654;2024-03-23T09:52:50;95565.22;;;9.22;100.00
62510;BME280;48558;48.242;11.654;2024-03-23T09:57:01;95563.09;;;9.17;100.00
62510;BME280;48558;48.242;11.654;2024-03-23T10:01:13;95587.44;;;8.95;100.00
62510;BME280;48558;48.242;11.654;2024-03-23T10:05:24;95586.69;;;8.71;100.00
62510;BME280;48558;48.242;11.654;2024-03-23T10:09:35;95596.75;;;8.74;100.00
62510;BME280;48558;48.242;11.654;2024-03-23T10:13:46;95610.06;;;8.42;100.00
62510;BME280;48558;48.242;11.654;2024-03-23T10:17:57;95591.75;;;8.30;100.00
62510;BME280;48558;48.242;11.654;2024-03-23T10:22:09;95603.38;;;8.34;100.00
62510;BME280;48558;48.242;11.654;2024-03-23T10:26:24;95605.09;;;8.55;100.00
62510;BME280;48558;48.242;11.654;2024-03-23T10:30:40;95616.13;;;8.55;100.00
62510;BME280;48558;48.242;11.654;2024-03-23T10:34:51;95615.94;;;8.26;100.00
62510;BME280;48558;48.242;11.654;2024-03-23T10:39:02;95609.81;;;8.22;100.00
62510;BME280;48558;48.242;11.654;2024-03-23T10:43:13;95614.06;;;8.23;100.00
62510;BME280;48558;48.242;11.654;2024-03-23T10:47:24;95621.28;;;8.21;100.00
62510;BME280;48558;48.242;11.654;2024-03-23T10:51:37;95642.06;;;8.31;100.00
62510;BME280;48558;48.242;11.654;2024-03-23T10:55:49;95644.72;;;8.07;100.00
62510;BME280;48558;48.242;11.654;2024-03-23T11:00:02;95656.38;;;7.75;100.00
62510;BME280;48558;48.242;11.654;2024-03-23T11:04:29;95656.97;;;7.70;100.00
62510;BME280;48558;48.242;11.654;2024-03-23T11:08:43;95662.75;;;7.90;100.00
62510;BME280;48558;48.242;11.654;2024-03-23T11:13:22;95667.63;;;8.04;100.00
62510;BME280;48558;48.242;11.654;2024-03-23T11:17:34;95673.59;;;8.30;100.00
62510;BME280;48558;48.242;11.654;2024-03-23T11:21:54;95688.69;;;8.43;100.00
62510;BME280;48558;48.242;11.654;2024-03-23T11:26:07;95685.63;;;8.83;100.00
62510;BME280;48558;48.242;11.654;2024-03-23T11:30:22;95673.97;;;8.88;100.00
62510;BME280;48558;48.242;11.654;2024-03-23T11:34:34;95649.41;;;8.99;100.00
62510;BME280;48558;48.242;11.654;2024-03-23T11:38:46;95657.03;;;9.28;100.00
62510;BME280;48558;48.242;11.654;2024-03-23T11:43:00;95678.22;;;9.22;99.91
62510;BME280;48558;48.242;11.654;2024-03-23T11:47:12;95675.88;;;9.53;100.00
62510;BME280;48558;48.242;11.654;2024-03-23T11:51:23;95685.22;;;10.08;96.79
62510;BME280;48558;48.242;11.654;2024-03-23T11:55:57;95686.13;;;9.76;97.78
62510;BME280;48558;48.242;11.654;2024-03-23T12:00:21;95660.03;;;9.15;91.56
62510;BME280;48558;48.242;11.654;2024-03-23T12:04:33;95644.31;;;9.30;92.88
62510;BME280;48558;48.242;11.654;2024-03-23T12:08:46;95676.78;;;9.50;87.51
62510;BME280;48558;48.242;11.654;2024-03-23T12:13:00;95678.44;;;9.57;85.91
62510;BME280;48558;48.242;11.654;2024-03-23T12:17:15;95654.56;;;10.06;79.98
62510;BME280;48558;48.242;11.654;2024-03-23T12:21:26;95661.25;;;10.44;79.35
62510;BME280;48558;48.242;11.654;2024-03-23T12:25:40;95651.88;;;9.97;76.61
62510;BME280;48558;48.242;11.654;2024-03-23T12:29:51;95674.28;;;9.99;74.36
62510;BME280;48558;48.242;11.654;2024-03-23T12:34:02;95658.53;;;9.76;72.32
62510;BME280;48558;48.242;11.654;2024-03-23T12:38:13;95664.41;;;9.69;70.67
62510;BME280;48558;48.242;11.654;2024-03-23T12:42:25;95646.84;;;9.81;72.72
62510;BME280;48558;48.242;11.654;2024-03-23T12:46:36;95662.19;;;9.97;69.97
62510;BME280;48558;48.242;11.654;2024-03-23T12:50:47;95649.59;;;9.96;68.06
62510;BME280;48558;48.242;11.654;2024-03-23T12:54:58;95645.63;;;9.97;66.96
62510;BME280;48558;48.242;11.654;2024-03-23T12:59:09;95649.47;;;10.14;67.50
62510;BME280;48558;48.242;11.654;2024-03-23T13:03:20;95655.66;;;10.24;66.85
62510;BME280;48558;48.242;11.654;2024-03-23T13:07:31;95661.16;;;10.53;67.40
62510;BME280;48558;48.242;11.654;2024-03-23T13:11:41;95675.91;;;10.50;66.05
62510;BME280;48558;48.242;11.654;2024-03-23T13:15:52;95677.84;;;10.15;66.60
62510;BME280;48558;48.242;11.654;2024-03-23T13:20:03;95635.06;;;9.57;66.54
62510;BME280;48558;48.242;11.654;2024-03-23T13:24:15;95660.78;;;9.63;67.12
62510;BME280;48558;48.242;11.654;2024-03-23T13:28:26;95629.91;;;10.03;67.51
62510;BME280;48558;48.242;11.654;2024-03-23T13:32:36;95631.38;;;10.28;68.26
62510;BME280;48558;48.242;11.654;2024-03-23T13:36:48;95631.56;;;10.39;68.12
62510;BME280;48558;48.242;11.654;2024-03-23T13:41:00;95628.19;;;9.91;69.07
62510;BME280;48558;48.242;11.654;2024-03-23T13:45:11;95651.88;;;9.83;68.46
62510;BME280;48558;48.242;11.654;2024-03-23T13:49:29;95608.44;;;8.92;71.33
62510;BME280;48558;48.242;11.654;2024-03-23T13:53:43;95676.09;;;7.64;81.02
62510;BME280;48558;48.242;11.654;2024-03-23T13:57:54;95689.81;;;7.37;94.65
62510;BME280;48558;48.242;11.654;2024-03-23T14:02:05;95679.28;;;7.45;99.67
62510;BME280;48558;48.242;11.654;2024-03-23T14:06:16;95683.56;;;7.46;100.00
62510;BME280;48558;48.242;11.654;2024-03-23T14:10:27;95699.28;;;7.54;100.00
62510;BME280;48558;48.242;11.654;2024-03-23T14:14:38;95683.88;;;7.57;100.00
62510;BME280;48558;48.242;11.654;2024-03-23T14:18:49;95665.22;;;7.52;97.89
62510;BME280;48558;48.242;11.654;2024-03-23T14:23:10;95678.69;;;7.68;93.14
62510;BME280;48558;48.242;11.654;2024-03-23T14:27:21;95671.47;;;7.88;88.91
62510;BME280;48558;48.242;11.654;2024-03-23T14:31:32;95683.84;;;8.11;84.41
62510;BME280;48558;48.242;11.654;2024-03-23T14:35:43;95686.59;;;8.02;83.03
62510;BME280;48558;48.242;11.654;2024-03-23T14:39:58;95692.22;;;8.26;83.96
62510;BME280;48558;48.242;11.654;2024-03-23T14:44:09;95693.94;;;7.87;79.08
62510;BME280;48558;48.242;11.654;2024-03-23T14:48:20;95704.31;;;7.74;76.43
62510;BME280;48558;48.242;11.654;2024-03-23T14:52:33;95688.13;;;7.49;72.47
62510;BME280;48558;48.242;11.654;2024-03-23T14:56:43;95697.59;;;7.48;74.56
62510;BME280;48558;48.242;11.654;2024-03-23T15:01:02;95713.22;;;7.60;71.47
62510;BME280;48558;48.242;11.654;2024-03-23T15:05:14;95724.47;;;7.44;69.44
62510;BME280;48558;48.242;11.654;2024-03-23T15:09:25;95715.00;;;7.54;70.04
62510;BME280;48558;48.242;11.654;2024-03-23T15:13:37;95725.25;;;7.53;75.11
62510;BME280;48558;48.242;11.654;2024-03-23T15:17:48;95720.53;;;7.81;72.47
62510;BME280;48558;48.242;11.654;2024-03-23T15:21:59;95710.47;;;7.69;73.86
62510;BME280;48558;48.242;11.654;2024-03-23T15:26:10;95701.44;;;7.59;72.53
62510;BME280;48558;48.242;11.654;2024-03-23T15:30:21;95667.38;;;7.57;74.10
62510;BME280;48558;48.242;11.654;2024-03-23T15:34:32;95682.31;;;7.65;74.05
62510;BME280;48558;48.242;11.654;2024-03-23T15:38:43;95680.03;;;8.00;74.81
62510;BME280;48558;48.242;11.654;2024-03-23T15:42:55;95667.38;;;8.53;73.34
62510;BME280;48558;48.242;11.654;2024-03-23T15:47:06;95657.88;;;8.63;71.01
62510;BME280;48558;48.242;11.654;2024-03-23T15:51:17;95660.28;;;8.70;70.87
62510;BME280;48558;48.242;11.654;2024-03-23T15:55:31;95667.78;;;8.70;69.38
62510;BME280;48558;48.242;11.654;2024-03-23T15:59:46;95664.22;;;9.11;70.30
62510;BME280;48558;48.242;11.654;2024-03-23T16:03:57;95675.09;;;9.91;71.78
62510;BME280;48558;48.242;11.654;2024-03-23T16:08:08;95672.66;;;9.31;71.20
62510;BME280;48558;48.242;11.654;2024-03-23T16:12:19;95682.22;;;8.55;74.75
62510;BME280;48558;48.242;11.654;2024-03-23T16:16:30;95669.72;;;8.78;74.77
62510;BME280;48558;48.242;11.654;2024-03-23T16:20:40;95667.25;;;8.47;77.33
62510;BME280;48558;48.242;11.654;2024-03-23T16:24:51;95652.47;;;8.68;76.85
62510;BME280;48558;48.242;11.654;2024-03-23T16:29:02;95644.03;;;8.21;77.77
62510;BME280;48558;48.242;11.654;2024-03-23T16:33:17;95659.22;;;7.98;82.06
62510;BME280;48558;48.242;11.654;2024-03-23T16:37:28;95658.22;;;7.60;86.67
62510;BME280;48558;48.242;11.654;2024-03-23T16:41:39;95676.53;;;7.45;84.95
62510;BME280;48558;48.242;11.654;2024-03-23T16:45:57;95689.97;;;7.61;84.49
62510;BME280;48558;48.242;11.654;2024-03-23T16:50:10;95684.16;;;7.77;85.40
62510;BME280;48558;48.242;11.654;2024-03-23T16:54:21;95684.78;;;7.54;85.78
62510;BME280;48558;48.242;11.654;2024-03-23T16:58:33;95673.31;;;7.28;83.82
62510;BME280;48558;48.242;11.654;2024-03-23T17:02:45;95679.09;;;7.12;88.21
62510;BME280;48558;48.242;11.654;2024-03-23T17:06:58;95695.41;;;7.06;87.92
62510;BME280;48558;48.242;11.654;2024-03-23T17:11:09;95689.88;;;6.97;89.87
62510;BME280;48558;48.242;11.654;2024-03-23T17:15:20;95680.09;;;6.87;92.97
62510;BME280;48558;48.242;11.654;2024-03-23T17:19:32;95674.31;;;7.03;93.80
62510;BME280;48558;48.242;11.654;2024-03-23T17:23:43;95687.94;;;7.16;92.02
62510;BME280;48558;48.242;11.654;2024-03-23T17:27:54;95688.84;;;7.22;92.23
62510;BME280;48558;48.242;11.654;2024-03-23T17:32:05;95697.84;;;7.13;92.63
62510;BME280;48558;48.242;11.654;2024-03-23T17:36:16;95713.38;;;6.98;92.88
62510;BME280;48558;48.242;11.654;2024-03-23T17:40:33;95738.72;;;7.02;96.91
62510;BME280;48558;48.242;11.654;2024-03-23T17:44:45;95697.25;;;5.87;100.00
62510;BME280;48558;48.242;11.654;2024-03-23T17:48:56;95711.22;;;5.45;100.00
62510;BME280;48558;48.242;11.654;2024-03-23T17:53:08;95715.88;;;5.23;100.00
62510;BME280;48558;48.242;11.654;2024-03-23T17:57:19;95729.28;;;5.43;100.00
62510;BME280;48558;48.242;11.654;2024-03-23T18:01:30;95737.94;;;5.54;100.00
62510;BME280;48558;48.242;11.654;2024-03-23T18:05:41;95749.16;;;5.47;100.00
62510;BME280;48558;48.242;11.654;2024-03-23T18:09:52;95750.66;;;5.48;100.00
62510;BME280;48558;48.242;11.654;2024-03-23T18:14:03;95759.78;;;5.45;100.00
62510;BME280;48558;48.242;11.654;2024-03-23T18:18:14;95769.25;;;5.19;100.00
62510;BME280;48558;48.242;11.654;2024-03-23T18:22:25;95773.94;;;5.31;100.00
62510;BME280;48558;48.242;11.654;2024-03-23T18:26:36;95776.44;;;5.38;100.00
62510;BME280;48558;48.242;11.654;2024-03-23T18:31:00;95788.41;;;5.31;100.00
62510;BME280;48558;48.242;11.654;2024-03-23T18:35:11;95785.03;;;5.15;100.00
62510;BME280;48558;48.242;11.654;2024-03-23T18:39:22;95807.47;;;5.22;100.00
62510;BME280;48558;48.242;11.654;2024-03-23T18:43:33;95782.28;;;5.15;100.00
62510;BME280;48558;48.242;11.654;2024-03-23T18:47:45;95798.38;;;5.00;100.00
62510;BME280;48558;48.242;11.654;2024-03-23T18:51:56;95805.50;;;4.85;100.00
62510;BME280;48558;48.242;11.654;2024-03-23T18:56:07;95816.22;;;5.04;100.00
62510;BME280;48558;48.242;11.654;2024-03-23T19:00:18;95796.84;;;5.12;100.00
62510;BME280;48558;48.242;11.654;2024-03-23T19:04:29;95774.94;;;5.24;100.00
62510;BME280;48558;48.242;11.654;2024-03-23T19:08:40;95757.31;;;5.00;100.00
62510;BME280;48558;48.242;11.654;2024-03-23T19:12:51;95761.06;;;5.06;100.00
62510;BME280;48558;48.242;11.654;2024-03-23T19:17:02;95710.03;;;4.87;100.00
62510;BME280;48558;48.242;11.654;2024-03-23T19:21:13;95760.50;;;5.11;100.00
62510;BME280;48558;48.242;11.654;2024-03-23T19:25:26;95779.75;;;5.07;100.00
62510;BME280;48558;48.242;11.654;2024-03-23T19:29:36;95780.53;;;5.08;100.00
62510;BME280;48558;48.242;11.654;2024-03-23T19:33:47;95784.69;;;5.00;100.00
62510;BME280;48558;48.242;11.654;2024-03-23T19:37:58;95783.63;;;4.97;100.00
62510;BME280;48558;48.242;11.654;2024-03-23T19:42:09;95776.25;;;4.82;100.00
62510;BME280;48558;48.242;11.654;2024-03-23T19:46:21;95765.00;;;4.80;100.00
62510;BME280;48558;48.242;11.654;2024-03-23T19:50:33;95750.44;;;4.83;100.00
62510;BME280;48558;48.242;11.654;2024-03-23T19:54:45;95742.66;;;4.69;100.00
62510;BME280;48558;48.242;11.654;2024-03-23T19:58:55;95733.44;;;4.50;100.00
62510;BME280;48558;48.242;11.654;2024-03-23T20:03:06;95734.56;;;4.65;100.00
62510;BME280;48558;48.242;11.654;2024-03-23T20:07:17;95747.03;;;4.66;100.00
62510;BME280;48558;48.242;11.654;2024-03-23T20:11:28;95741.31;;;4.48;100.00
62510;BME280;48558;48.242;11.654;2024-03-23T20:15:40;95739.94;;;4.56;100.00
62510;BME280;48558;48.242;11.654;2024-03-23T20:19:52;95735.13;;;4.48;100.00
62510;BME280;48558;48.242;11.654;2024-03-23T20:24:04;95728.22;;;4.43;100.00
62510;BME280;48558;48.242;11.654;2024-03-23T20:28:15;95750.91;;;4.27;100.00
62510;BME280;48558;48.242;11.654;2024-03-23T20:32:26;95740.34;;;4.55;100.00
62510;BME280;48558;48.242;11.654;2024-03-23T20:36:36;95735.44;;;4.50;100.00
62510;BME280;48558;48.242;11.654;2024-03-23T20:40:52;95724.38;;;4.53;100.00
62510;BME280;48558;48.242;11.654;2024-03-23T20:45:03;95742.31;;;4.67;100.00
62510;BME280;48558;48.242;11.654;2024-03-23T20:49:15;95741.03;;;4.71;100.00
62510;BME280;48558;48.242;11.654;2024-03-23T20:53:26;95735.00;;;4.64;100.00
62510;BME280;48558;48.242;11.654;2024-03-23T20:57:38;95730.72;;;4.75;100.00
62510;BME280;48558;48.242;11.654;2024-03-23T21:01:48;95736.22;;;4.63;100.00
62510;BME280;48558;48.242;11.654;2024-03-23T21:05:59;95714.31;;;4.88;100.00
62510;BME280;48558;48.242;11.654;2024-03-23T21:10:14;95706.88;;;4.76;100.00
62510;BME280;48558;48.242;11.654;2024-03-23T21:14:24;95722.84;;;4.90;100.00
62510;BME280;48558;48.242;11.654;2024-03-23T21:18:35;95719.34;;;5.02;100.00
62510;BME280;48558;48.242;11.654;2024-03-23T21:22:50;95706.19;;;4.84;100.00
62510;BME280;48558;48.242;11.654;2024-03-23T21:27:01;95675.88;;;4.66;100.00
62510;BME280;48558;48.242;11.654;2024-03-23T21:31:12;95682.03;;;4.58;100.00
62510;BME280;48558;48.242;11.654;2024-03-23T21:35:23;95708.09;;;4.75;100.00
62510;BME280;48558;48.242;11.654;2024-03-23T21:39:34;95721.09;;;4.71;100.00
62510;BME280;48558;48.242;11.654;2024-03-23T21:43:45;95729.09;;;4.65;100.00
62510;BME280;48558;48.242;11.654;2024-03-23T21:47:56;95709.72;;;4.47;100.00
62510;BME280;48558;48.242;11.654;2024-03-23T21:52:07;95715.72;;;4.42;100.00
62510;BME280;48558;48.242;11.654;2024-03-23T21:56:18;95714.88;;;4.45;100.00
62510;BME280;48558;48.242;11.654;2024-03-23T22:00:29;95721.31;;;4.39;100.00
62510;BME280;48558;48.242;11.654;2024-03-23T22:04:40;95719.00;;;4.37;100.00
62510;BME280;48558;48.242;11.654;2024-03-23T22:08:51;95716.81;;;4.32;100.00
62510;BME280;48558;48.242;11.654;2024-03-23T22:13:02;95726.44;;;4.36;100.00
62510;BME280;48558;48.242;11.654;2024-03-23T22:17:14;95731.78;;;4.27;100.00
62510;BME280;48558;48.242;11.654;2024-03-23T22:21:24;95729.16;;;4.36;100.00
62510;BME280;48558;48.242;11.654;2024-03-23T22:25:35;95725.78;;;4.20;100.00
62510;BME280;48558;48.242;11.654;2024-03-23T22:29:46;95714.50;;;4.18;100.00
62510;BME280;48558;48.242;11.654;2024-03-23T22:33:57;95722.72;;;4.30;100.00
62510;BME280;48558;48.242;11.654;2024-03-23T22:38:08;95719.13;;;4.33;100.00
62510;BME280;48558;48.242;11.654;2024-03-23T22:42:19;95712.66;;;4.40;100.00
62510;BME280;48558;48.242;11.654;2024-03-23T22:46:30;95715.41;;;4.40;100.00
62510;BME280;48558;48.242;11.654;2024-03-23T22:50:44;95701.81;;;4.24;100.00
62510;BME280;48558;48.242;11.654;2024-03-23T22:54:55;95694.59;;;4.17;100.00
62510;BME280;48558;48.242;11.654;2024-03-23T22:59:07;95685.81;;;3.97;100.00